TAF Text Data
IDs:
Format:
Raw Decoded Include METAR

Data at: 0727 UTC 23 Oct 2018

KSEZ 230715Z AUTO 03008KT 10SM CLR 15/08 A3007 RMK AO2

KSEZ 230521Z 2306/2406 03008KT P6SM SCT050
  FM231600 16008KT P6SM SCT040 BKN080
  PROB30 2316/2322 VRB10G20KT 5SM TSRA BKN035CB
  FM240300 03008KT P6SM SCT080